Sault Sainte Marie, MI (49783)

1:18 AM EST on February 08, 2016 (GMT -0500)
Sault Ste Marie Municipal / Sanderson Field | | Change Station
CLOSE
Current Station
Airport
Location: Sault Ste Marie,
Elevation: 715 ft
Nearby Weather Stations

Elev 715 ft 46.48 °N, 84.36 °W | Updated 2 minutes ago

Overcast
Overcast
34 °F
Feels Like 34 °F
N
0
Wind Variable Wind from North

Today
High -- | Low -- °F
--% Chance of Precip.
Yesterday
High -- | Low -- °F
Precip. -- in
Pressure 29.58 in
Visibility 3.0 miles
Clouds Overcast 1400 ft
Dew Point 32 °F
Humidity 92%
Rainfall 0.00 in
Snow Depth Not available.
7:52 AM 5:51 PM
Waning Crescent, 0% visible
SPECI KANJ 080616Z AUTO 00000KT 3SM BR OVC014 01/00 A2958 RMK AO2 T00110000
Pressure 29.58 in
Visibility 3.0 miles
Clouds Overcast 1400 ft
Dew Point 32 °F
Humidity 92%
Rainfall 0.00 in
Snow Depth Not available.
7:52 AM 5:51 PM
Waning Crescent, 0% visible
SPECI KANJ 080616Z AUTO 00000KT 3SM BR OVC014 01/00 A2958 RMK AO2 T00110000

10-Day Weather Forecast

Almanac

Astronomy

Feb. 08, 2016 Rise Set
Actual Time
Civil Twilight
Nautical Twilight
Astronomical Twilight
Moon
Length of Visible Light
Length of Day
Tomorrow will be .
, % of the Moon is Illuminated

Today's Extremes

State Highs State Lows

Community

WunderPhotos

Upload Photos

1,891,393 photos uploaded!

WunderBlog® & News

Nearby

Air Quality

  Air Quality AQ Index Pollutant
Not available.

Snow Depth

Station Depth Elevation

Earthquake Activity

City Distance Mag. Time & Date
Minimum magnitude displayed is 2.5.

Coastal Water Temperatures

Place Temperature

Stations

Nearby Weather Stations

Station Location Temp. Windchill Dew Point Humidity Wind Precip. Elev Updated Type
                   

Watches & Warnings

There are currently no watches in effect.